Time;durP1;ratioP1;P1;durP2;ratioP2;P2;SDS_P1;SDS_P2;PMS_P1;PMS_P2;Temp;Humidity;BMP_temperature;BMP_pressure;BME280_temperature;BME280_humidity;BME280_pressure;Samples;Min_cycle;Max_cycle;Signal;HPM_P1;HPM_P2
2021/06/02 00:02:16;;;;;;;1.40;1.00;;;;;;;12.84;76.23;100492.25;5051070;28;20063;-83
2021/06/02 00:04:47;;;;;;;1.70;1.50;;;;;;;12.83;75.53;100480.13;5033050;28;20040;-78
2021/06/02 00:07:24;;;;;;;1.40;1.30;;;;;;;12.98;76.12;100503.00;5050507;28;20052;-77
2021/06/02 00:09:52;;;;;;;2.40;1.20;;;;;;;13.03;75.30;100491.91;5046668;28;20108;-77
2021/06/02 00:12:18;;;;;;;2.45;1.50;;;;;;;13.06;74.95;100486.81;5049744;28;20438;-78
2021/06/02 00:14:44;;;;;;;6.68;1.55;;;;;;;13.03;75.92;100494.50;5050747;28;20151;-78
2021/06/02 00:17:10;;;;;;;1.23;1.10;;;;;;;13.10;76.78;100498.16;5050930;28;20495;-78
2021/06/02 00:19:36;;;;;;;3.28;1.50;;;;;;;13.10;76.17;100488.66;5052292;28;20025;-78
2021/06/02 00:22:04;;;;;;;1.95;1.40;;;;;;;13.17;75.71;100484.53;5054857;28;20057;-78
2021/06/02 00:24:29;;;;;;;1.73;1.20;;;;;;;13.00;75.12;100478.88;5055181;28;20087;-79
2021/06/02 00:26:58;;;;;;;3.33;1.30;;;;;;;12.95;76.39;100485.66;5036887;28;20037;-78
2021/06/02 00:29:30;;;;;;;4.10;1.80;;;;;;;13.07;76.16;100498.03;5036704;28;20039;-78
2021/06/02 00:31:56;;;;;;;2.42;1.20;;;;;;;13.03;76.67;100484.13;5036541;28;20036;-80
2021/06/02 00:34:23;;;;;;;2.05;1.40;;;;;;;13.30;77.00;100497.81;5036773;28;20032;-78
2021/06/02 00:36:50;;;;;;;3.25;1.35;;;;;;;13.45;76.49;100506.00;4987104;28;20049;-78
2021/06/02 00:39:17;;;;;;;2.47;1.15;;;;;;;13.48;75.76;100511.25;5054731;28;20029;-79
2021/06/02 00:41:44;;;;;;;3.42;1.45;;;;;;;13.48;76.49;100507.78;5036722;28;20044;-77
2021/06/02 00:44:12;;;;;;;3.33;1.50;;;;;;;13.19;76.15;100503.56;5036706;28;20056;-77
2021/06/02 00:46:39;;;;;;;3.17;1.35;;;;;;;12.84;76.07;100454.25;5054493;28;20565;-78
2021/06/02 00:49:06;;;;;;;2.08;1.23;;;;;;;12.97;74.83;100459.78;5054120;28;20029;-78
2021/06/02 00:51:32;;;;;;;4.60;1.27;;;;;;;13.01;76.24;100497.88;5053339;28;20040;-79
2021/06/02 00:53:58;;;;;;;2.85;1.13;;;;;;;13.00;77.33;100512.56;5048007;28;20115;-77
2021/06/02 00:56:30;;;;;;;2.05;1.60;;;;;;;13.14;77.25;100525.03;5054239;28;20029;-78
2021/06/02 00:59:00;;;;;;;3.20;1.02;;;;;;;13.13;77.12;100523.28;5054633;28;20051;-78
2021/06/02 01:01:26;;;;;;;1.80;1.40;;;;;;;13.10;77.41;100514.56;5069457;28;20407;-79
2021/06/02 01:03:55;;;;;;;1.75;1.05;;;;;;;12.94;76.60;100491.66;5053881;28;20025;-79
2021/06/02 01:06:21;;;;;;;2.97;1.20;;;;;;;12.98;77.55;100493.50;5054200;28;20051;-78
2021/06/02 01:08:47;;;;;;;2.30;1.65;;;;;;;13.13;77.83;100510.31;5036133;28;20483;-78
2021/06/02 01:11:14;;;;;;;1.23;1.13;;;;;;;12.83;78.06;100493.06;5054041;28;20043;-79
2021/06/02 01:13:42;;;;;;;1.30;1.00;;;;;;;12.81;78.69;100499.91;5054013;28;20025;-77
2021/06/02 01:16:08;;;;;;;2.50;1.20;;;;;;;12.77;79.79;100502.44;5035739;28;20061;-77
2021/06/02 01:18:35;;;;;;;1.60;1.17;;;;;;;12.78;78.94;100504.19;5036319;28;20116;-75
2021/06/02 01:21:01;;;;;;;1.30;1.20;;;;;;;12.77;79.42;100501.53;5035933;28;20099;-78
2021/06/02 01:23:28;;;;;;;3.92;1.25;;;;;;;12.73;79.33;100502.28;5053744;28;20037;-77
2021/06/02 01:25:54;;;;;;;2.13;1.10;;;;;;;12.29;80.39;100432.84;5053903;28;20112;-75
2021/06/02 01:28:19;;;;;;;1.55;1.20;;;;;;;12.72;79.50;100497.94;5054197;28;20111;-76
2021/06/02 01:30:45;;;;;;;1.90;1.35;;;;;;;12.12;80.80;100474.66;5052355;28;20464;-77
2021/06/02 01:33:35;;;;;;;3.00;1.30;;;;;;;12.10;80.75;100462.47;5053677;28;20037;-78
2021/06/02 01:36:06;;;;;;;1.50;1.17;;;;;;;12.41;80.19;100510.00;5053317;28;20439;-77
2021/06/02 01:38:50;;;;;;;2.58;1.42;;;;;;;12.28;80.82;100511.34;5053543;28;20044;-77
2021/06/02 01:41:23;;;;;;;1.83;1.40;;;;;;;12.41;80.82;100513.47;5053458;28;20033;-78
2021/06/02 01:43:54;;;;;;;1.58;1.30;;;;;;;12.28;81.19;100512.19;5053542;28;20060;-77
2021/06/02 01:46:52;;;;;;;2.15;1.30;;;;;;;12.23;81.04;100516.38;5053314;28;20037;-80
2021/06/02 01:49:55;;;;;;;3.88;1.50;;;;;;;12.37;80.69;100515.91;5034999;28;20131;-77
2021/06/02 01:52:39;;;;;;;3.22;1.40;;;;;;;12.16;80.41;100478.19;5052252;28;20033;-74
2021/06/02 01:55:14;;;;;;;1.40;1.30;;;;;;;12.28;80.02;100519.09;5032808;28;20037;-79
2021/06/02 01:58:01;;;;;;;2.50;1.30;;;;;;;12.05;80.13;100488.22;5030449;28;20061;-86
2021/06/02 02:00:32;;;;;;;2.50;1.67;;;;;;;12.05;81.23;100526.13;5034787;28;20120;-78
2021/06/02 02:03:22;;;;;;;2.65;1.52;;;;;;;12.19;80.68;100524.00;5027724;28;20187;-83
2021/06/02 02:06:06;;;;;;;2.08;1.50;;;;;;;11.86;81.55;100519.47;5034808;28;20060;-83
2021/06/02 02:09:06;;;;;;;1.90;1.25;;;;;;;11.62;81.04;100497.16;5052879;28;20037;-84
2021/06/02 02:11:38;;;;;;;5.40;1.60;;;;;;;11.80;81.49;100525.31;5035031;28;20120;-82
2021/06/02 02:14:22;;;;;;;2.92;1.40;;;;;;;11.75;82.29;100532.03;5038549;28;20056;-81
2021/06/02 02:17:07;;;;;;;3.38;1.50;;;;;;;11.74;82.13;100530.28;5052253;28;20035;-77
2021/06/02 02:19:59;;;;;;;2.97;1.35;;;;;;;11.90;81.89;100536.84;5034680;28;20033;-78
2021/06/02 02:23:03;;;;;;;2.05;1.25;;;;;;;11.88;82.27;100536.78;5034106;28;20045;-77
2021/06/02 02:25:53;;;;;;;3.63;1.60;;;;;;;11.86;81.90;100540.16;4990375;28;20045;-83
2021/06/02 02:28:59;;;;;;;7.15;1.50;;;;;;;11.88;81.74;100541.09;4974239;28;20128;-76
2021/06/02 02:31:46;;;;;;;2.60;1.30;;;;;;;11.57;82.17;100483.19;4982026;28;20038;-78
2021/06/02 02:34:35;;;;;;;1.65;1.35;;;;;;;12.08;81.80;100546.94;4970390;28;20038;-79
2021/06/02 02:37:05;;;;;;;1.60;1.40;;;;;;;12.12;81.79;100543.63;4970814;28;20506;-76
2021/06/02 02:39:49;;;;;;;1.25;1.00;;;;;;;12.17;80.89;100547.22;4970220;28;20034;-76
2021/06/02 02:42:35;;;;;;;1.63;1.30;;;;;;;11.71;81.30;100479.34;4969680;28;20046;-75
2021/06/02 02:45:24;;;;;;;2.08;1.40;;;;;;;12.09;80.44;100553.91;4970186;28;20089;-84
2021/06/02 02:47:58;;;;;;;1.90;1.20;;;;;;;12.04;79.67;100552.88;4911926;29;20040;-84
2021/06/02 02:50:59;;;;;;;2.63;1.42;;;;;;;12.10;79.11;100555.63;4910193;29;20068;-78
2021/06/02 02:53:44;;;;;;;2.53;1.60;;;;;;;11.87;79.87;100555.72;4906245;29;20048;-90
2021/06/02 02:56:20;;;;;;;2.08;1.50;;;;;;;11.88;80.38;100559.22;4898029;29;20048;-90
2021/06/02 02:59:27;;;;;;;3.03;1.40;;;;;;;11.46;80.42;100486.31;4899172;29;20044;-89
2021/06/02 03:02:12;;;;;;;1.48;1.10;;;;;;;11.93;80.87;100562.81;4889741;29;20099;-89
2021/06/02 03:04:48;;;;;;;1.40;1.10;;;;;;;11.68;79.96;100523.22;4893952;29;20071;-87
2021/06/02 03:07:17;;;;;;;2.75;1.30;;;;;;;11.95;80.28;100563.72;4897126;29;20432;-93
2021/06/02 03:09:52;;;;;;;1.95;1.33;;;;;;;11.84;80.58;100542.72;4909119;29;20554;-90
2021/06/02 03:12:37;;;;;;;1.30;1.20;;;;;;;11.88;79.55;100549.72;4917111;29;20031;-90
2021/06/02 03:15:12;;;;;;;2.70;0.95;;;;;;;11.94;79.16;100580.97;4915908;29;20040;-91
2021/06/02 03:18:16;;;;;;;3.13;1.00;;;;;;;11.99;79.32;100578.59;4913426;29;20048;-89
2021/06/02 03:20:53;;;;;;;1.63;1.00;;;;;;;11.80;80.58;100592.56;4901150;29;20032;-91
2021/06/02 03:23:50;;;;;;;1.42;1.10;;;;;;;11.40;81.22;100529.16;4913499;29;20071;-90
2021/06/02 03:26:20;;;;;;;2.08;1.00;;;;;;;11.81;80.41;100590.06;4933021;29;20040;-91
2021/06/02 03:29:30;;;;;;;0.93;0.90;;;;;;;11.79;80.53;100596.00;4916882;29;20174;-92
2021/06/02 03:32:03;;;;;;;1.60;0.93;;;;;;;11.65;81.14;100556.72;4949393;28;20091;-89
2021/06/02 03:34:47;;;;;;;1.27;1.17;;;;;;;11.86;80.23;100551.38;5008107;28;20033;-89
2021/06/02 03:37:23;;;;;;;3.45;0.80;;;;;;;12.13;79.69;100598.00;4992637;28;20045;-86
2021/06/02 03:40:05;;;;;;;1.17;1.00;;;;;;;11.92;79.14;100540.38;5008940;28;20498;-87
2021/06/02 03:42:55;;;;;;;2.08;1.00;;;;;;;12.44;78.52;100604.19;4992965;28;20053;-88
2021/06/02 03:45:29;;;;;;;;;;;;;;;12.44;78.95;100604.19;5009511;28;20126;-88
2021/06/02 03:48:21;;;;;;;3.67;1.10;;;;;;;12.41;79.10;100609.28;4979572;28;19948;-87
2021/06/02 03:51:02;;;;;;;1.17;1.08;;;;;;;12.48;80.06;100610.34;5008684;28;20179;-83
2021/06/02 03:53:33;;;;;;;1.30;1.15;;;;;;;12.60;78.80;100615.91;4992263;28;20480;-84
2021/06/02 03:56:32;;;;;;;2.85;1.10;;;;;;;12.51;77.98;100619.91;5008684;28;20168;-85
2021/06/02 03:59:22;;;;;;;1.58;1.20;;;;;;;12.49;78.37;100616.41;5048164;28;20037;-86
2021/06/02 04:01:48;;;;;;;2.22;1.10;;;;;;;12.35;78.29;100616.84;5026451;28;20025;-78
2021/06/02 04:04:34;;;;;;;4.43;1.00;;;;;;;12.33;79.28;100620.22;5032734;28;20040;-79
2021/06/02 04:07:06;;;;;;;1.92;1.10;;;;;;;11.90;78.49;100571.38;5032202;28;20029;-79
2021/06/02 04:09:42;;;;;;;1.02;0.93;;;;;;;12.15;79.14;100605.84;5050855;28;20031;-79
2021/06/02 04:12:11;;;;;;;2.50;1.10;;;;;;;11.88;79.70;100562.66;5051146;28;20029;-82
2021/06/02 04:14:39;;;;;;;1.10;1.00;;;;;;;12.23;79.43;100634.56;5032972;28;20025;-81
2021/06/02 04:17:05;;;;;;;1.10;1.00;;;;;;;11.82;78.60;100552.13;5050555;28;20047;-81
2021/06/02 04:19:32;;;;;;;3.25;1.13;;;;;;;12.05;79.38;100607.25;5050337;28;20071;-78
2021/06/02 04:22:05;;;;;;;4.90;1.38;;;;;;;11.39;80.47;100528.28;5048452;28;20116;-86
2021/06/02 04:24:32;;;;;;;1.75;1.33;;;;;;;11.96;81.31;100622.44;5032521;28;20067;-86
2021/06/02 04:26:58;;;;;;;1.65;1.40;;;;;;;12.00;80.47;100633.78;5032443;28;20045;-88
2021/06/02 04:29:27;;;;;;;3.08;1.13;;;;;;;11.64;79.50;100584.28;5021267;28;20025;-86
2021/06/02 04:32:01;;;;;;;1.40;1.10;;;;;;;12.15;80.33;100647.25;5032446;28;20033;-86
2021/06/02 04:34:28;;;;;;;4.18;1.23;;;;;;;12.19;80.17;100653.44;5032478;28;20033;-92
2021/06/02 04:36:56;;;;;;;3.38;1.10;;;;;;;12.20;79.93;100642.22;5032701;28;20473;-85
2021/06/02 04:39:23;;;;;;;1.35;1.17;;;;;;;12.07;80.29;100648.69;5032968;28;20384;-86
2021/06/02 04:41:52;;;;;;;2.15;1.20;;;;;;;12.07;80.15;100644.41;5027740;28;20049;-86
2021/06/02 04:44:21;;;;;;;1.98;1.13;;;;;;;11.96;80.59;100619.88;5027198;28;20072;-88
2021/06/02 04:46:47;;;;;;;1.77;1.20;;;;;;;12.07;79.43;100657.34;5011762;28;20029;-86
2021/06/02 04:49:16;;;;;;;3.13;1.55;;;;;;;12.14;79.68;100667.06;5027562;28;20087;-83
2021/06/02 04:51:59;;;;;;;1.70;1.20;;;;;;;12.23;80.05;100671.66;5011512;28;20487;-88
2021/06/02 04:55:03;;;;;;;4.15;1.05;;;;;;;12.37;78.48;100674.72;5011476;28;20045;-85
2021/06/02 04:57:46;;;;;;;4.00;1.38;;;;;;;12.43;79.65;100684.41;5022476;28;20095;-84
2021/06/02 05:00:35;;;;;;;2.33;1.20;;;;;;;12.44;79.14;100681.84;5008218;28;20065;-86
2021/06/02 05:03:26;;;;;;;1.42;1.27;;;;;;;12.51;78.66;100688.13;5011131;28;20038;-86
2021/06/02 05:06:32;;;;;;;2.47;1.40;;;;;;;12.17;78.55;100609.34;5011438;28;20496;-90
2021/06/02 05:09:11;;;;;;;1.40;1.15;;;;;;;12.29;78.85;100637.34;5013608;28;20037;-85
2021/06/02 05:12:14;;;;;;;1.52;1.30;;;;;;;12.75;78.07;100685.44;5026931;28;20036;-88
2021/06/02 05:15:11;;;;;;;4.30;1.17;;;;;;;12.86;76.79;100690.97;5030285;28;20028;-88
2021/06/02 05:18:01;;;;;;;3.17;1.30;;;;;;;12.92;74.44;100690.25;5027983;28;20080;-85
2021/06/02 05:22:04;;;;;;;1.95;1.50;;;;;;;12.88;74.73;100688.41;5034392;28;20423;-85
2021/06/02 05:23:36;;;;;;;;;;;;;;;12.89;75.80;100692.78;5042625;28;20088;-84
2021/06/02 05:26:32;;;;;;;2.72;1.20;;;;;;;12.60;75.12;100648.69;5035499;28;19936;-85
2021/06/02 05:29:23;;;;;;;2.67;1.52;;;;;;;13.05;75.08;100702.75;5035626;28;20104;-85
2021/06/02 05:32:07;;;;;;;2.60;1.50;;;;;;;13.04;75.35;100707.91;5022224;28;20036;-86
2021/06/02 05:35:14;;;;;;;2.15;1.40;;;;;;;13.13;74.30;100710.78;5034864;28;20454;-88
2021/06/02 05:38:30;;;;;;;6.13;1.70;;;;;;;13.17;72.94;100712.66;5035249;28;20508;-88
2021/06/02 05:40:59;;;;;;;2.40;1.38;;;;;;;13.28;72.70;100725.91;5035164;28;20025;-88
2021/06/02 05:43:55;;;;;;;1.40;1.10;;;;;;;13.29;71.21;100719.03;5035134;28;20398;-83
2021/06/02 05:46:39;;;;;;;1.17;1.10;;;;;;;13.24;71.87;100724.06;5035186;28;20013;-82
2021/06/02 05:49:34;;;;;;;2.22;1.30;;;;;;;13.30;72.11;100734.63;5034539;28;20052;-85
2021/06/02 05:52:43;;;;;;;1.75;1.23;;;;;;;13.17;72.09;100727.28;5035115;28;20116;-87
2021/06/02 05:55:40;;;;;;;2.25;1.23;;;;;;;12.88;71.47;100698.78;4936092;29;20228;-84
2021/06/02 05:58:43;;;;;;;2.00;1.30;;;;;;;13.26;71.66;100740.56;4936545;29;20130;-86
2021/06/02 06:01:33;;;;;;;18.52;8.60;;;;;;;13.42;73.34;100735.03;4936476;29;20038;-90
2021/06/02 06:04:17;;;;;;;7.57;2.70;;;;;;;13.46;71.23;100741.19;4914204;29;20131;-84
2021/06/02 06:07:15;;;;;;;2.63;1.60;;;;;;;13.43;71.81;100747.16;4914110;29;20028;-82
2021/06/02 06:10:02;;;;;;;1.93;1.50;;;;;;;13.53;71.24;100753.50;4914107;29;20046;-83
2021/06/02 06:12:45;;;;;;;1.40;1.30;;;;;;;13.65;71.44;100758.16;4914165;29;20156;-85
2021/06/02 06:15:32;;;;;;;1.60;1.35;;;;;;;13.64;70.29;100751.19;4913946;29;20028;-87
2021/06/02 06:18:07;;;;;;;1.60;1.15;;;;;;;13.62;70.56;100739.91;4913736;29;20057;-84
2021/06/02 06:20:47;;;;;;;3.85;1.40;;;;;;;13.05;70.03;100637.97;4913229;29;20024;-82
2021/06/02 06:23:25;;;;;;;2.03;1.50;;;;;;;13.39;69.69;100688.22;4913952;29;20047;-83
2021/06/02 06:26:22;;;;;;;1.63;1.45;;;;;;;13.82;70.53;100760.34;4912590;29;20028;-89
2021/06/02 06:29:03;;;;;;;4.18;1.65;;;;;;;13.90;72.61;100758.84;4856955;29;20046;-83
2021/06/02 06:31:32;;;;;;;2.75;1.40;;;;;;;13.97;69.98;100765.09;4920933;29;20513;-86
2021/06/02 06:34:03;;;;;;;;;;;;;;;13.84;68.99;100769.06;4936384;28;20043;-83
2021/06/02 06:36:32;;;;;;;1.73;1.40;;;;;;;13.75;69.51;100749.78;4990138;28;19914;-84
2021/06/02 06:39:15;;;;;;;1.60;1.35;;;;;;;13.89;70.20;100778.75;4989902;28;20041;-84
2021/06/02 06:41:42;;;;;;;2.45;1.70;;;;;;;13.99;69.50;100772.06;4980199;28;20532;-84
2021/06/02 06:44:09;;;;;;;2.92;1.70;;;;;;;14.05;69.67;100759.25;4967910;28;20030;-84
2021/06/02 06:46:37;;;;;;;2.30;1.70;;;;;;;14.13;70.81;100763.78;4989624;28;20080;-86
2021/06/02 06:49:04;;;;;;;2.95;1.67;;;;;;;13.83;71.59;100708.50;4989414;28;20451;-86
2021/06/02 06:51:33;;;;;;;1.90;1.30;;;;;;;14.28;68.91;100758.13;4986887;28;20566;-84
2021/06/02 06:53:59;;;;;;;2.47;1.60;;;;;;;14.43;68.97;100761.16;4985928;28;20034;-84
2021/06/02 06:56:27;;;;;;;2.35;1.67;;;;;;;14.55;70.69;100752.78;4986677;28;20030;-83
2021/06/02 06:58:53;;;;;;;2.42;1.38;;;;;;;14.57;66.46;100780.53;4989778;28;20042;-88
2021/06/02 07:01:19;;;;;;;2.38;1.80;;;;;;;14.80;67.88;100785.47;4989062;28;20144;-84
2021/06/02 07:03:45;;;;;;;2.13;1.70;;;;;;;14.96;66.39;100784.13;4950302;29;20509;-83
2021/06/02 07:06:15;;;;;;;1.38;1.27;;;;;;;14.69;65.06;100737.56;4977163;28;20038;-89
2021/06/02 07:08:45;;;;;;;2.28;1.83;;;;;;;15.25;70.13;100772.66;4989399;28;20074;-82
2021/06/02 07:11:13;;;;;;;;;;;;;;;15.01;65.17;100777.31;4973612;28;20034;-84
2021/06/02 07:13:41;;;;;;;5.45;2.10;;;;;;;15.01;67.46;100750.44;4972839;28;20004;-84
2021/06/02 07:16:07;;;;;;;3.35;1.80;;;;;;;15.10;64.74;100770.59;4989558;28;20417;-83
2021/06/02 07:18:35;;;;;;;2.17;1.52;;;;;;;15.18;65.83;100784.66;4973070;28;20034;-85
2021/06/02 07:21:03;;;;;;;2.10;1.40;;;;;;;15.16;64.73;100782.00;4971937;28;20053;-83
2021/06/02 07:23:31;;;;;;;2.70;1.80;;;;;;;15.04;66.11;100759.19;4972920;28;20667;-87
2021/06/02 07:25:58;;;;;;;3.70;1.45;;;;;;;15.03;64.38;100779.97;4988185;28;20033;-84
2021/06/02 07:28:40;;;;;;;3.25;2.22;;;;;;;15.10;65.06;100761.03;4988227;28;20022;-85
2021/06/02 07:31:08;;;;;;;5.10;1.98;;;;;;;15.31;65.79;100772.78;4987180;28;20038;-87
2021/06/02 07:33:35;;;;;;;5.78;2.60;;;;;;;15.19;63.52;100745.66;4973130;28;20022;-85
2021/06/02 07:36:01;;;;;;;4.93;2.40;;;;;;;15.39;64.80;100772.97;5032455;28;20045;-85
2021/06/02 07:38:27;;;;;;;2.47;1.70;;;;;;;15.28;64.49;100733.72;5027760;28;20037;-83
2021/06/02 07:40:53;;;;;;;3.53;1.98;;;;;;;15.57;63.88;100786.38;5018111;28;20032;-84
2021/06/02 07:43:19;;;;;;;3.33;1.90;;;;;;;15.72;64.88;100774.53;5018677;28;20034;-83
2021/06/02 07:45:44;;;;;;;5.18;2.17;;;;;;;15.59;62.83;100781.19;5046514;28;20070;-86
2021/06/02 07:48:10;;;;;;;4.32;1.90;;;;;;;15.50;64.99;100782.78;5023423;28;20029;-86
2021/06/02 07:50:36;;;;;;;2.53;1.60;;;;;;;15.72;62.17;100780.63;5017224;28;20041;-82
2021/06/02 07:53:02;;;;;;;7.63;2.97;;;;;;;16.00;63.34;100784.69;5002558;28;20400;-84
2021/06/02 07:55:27;;;;;;;11.73;5.22;;;;;;;15.84;61.70;100786.09;5011606;28;20041;-81
2021/06/02 07:57:53;;;;;;;3.45;1.90;;;;;;;15.84;61.80;100770.50;5011735;28;20029;-86
2021/06/02 08:00:20;;;;;;;6.55;2.78;;;;;;;15.88;61.90;100741.94;5010865;28;20029;-84
2021/06/02 08:02:45;;;;;;;5.35;2.88;;;;;;;16.14;60.54;100758.91;5011639;28;20033;-85
2021/06/02 08:05:48;;;;;;;4.43;2.30;;;;;;;16.50;61.59;100783.00;5017556;28;20049;-79
2021/06/02 08:08:14;;;;;;;2.58;1.70;;;;;;;16.48;60.77;100766.47;5027579;28;20131;-82
2021/06/02 08:10:39;;;;;;;2.45;1.70;;;;;;;16.55;62.57;100744.88;5011529;28;20531;-82
2021/06/02 08:13:05;;;;;;;2.38;2.00;;;;;;;16.78;61.59;100783.47;5028427;28;20514;-79
2021/06/02 08:15:31;;;;;;;13.50;2.10;;;;;;;17.06;59.72;100786.53;5011797;28;20037;-80
2021/06/02 08:17:57;;;;;;;3.42;1.90;;;;;;;17.13;58.21;100775.34;5011670;28;20411;-87
2021/06/02 08:20:23;;;;;;;3.75;1.80;;;;;;;17.22;58.22;100778.13;5011272;28;20151;-83
2021/06/02 08:22:49;;;;;;;1.75;1.65;;;;;;;17.28;58.89;100773.00;5026128;28;20072;-84
2021/06/02 08:25:16;;;;;;;2.85;1.85;;;;;;;17.07;57.78;100788.31;5049741;28;20100;-80
2021/06/02 08:27:43;;;;;;;4.03;1.88;;;;;;;16.79;58.13;100780.03;5032641;28;20115;-86
2021/06/02 08:30:10;;;;;;;2.30;1.80;;;;;;;16.60;58.72;100797.09;5031850;28;20024;-82
2021/06/02 08:32:36;;;;;;;2.85;2.00;;;;;;;16.21;60.05;100782.47;5049234;28;20442;-85
2021/06/02 08:35:03;;;;;;;3.30;1.70;;;;;;;16.53;60.46;100796.09;5030056;28;20036;-89
2021/06/02 08:37:28;;;;;;;3.03;1.85;;;;;;;16.25;58.71;100773.84;5026736;28;20476;-84
2021/06/02 08:39:54;;;;;;;2.80;1.52;;;;;;;16.41;58.63;100790.66;5033983;28;20079;-83
2021/06/02 08:42:20;;;;;;;2.42;1.52;;;;;;;16.68;57.96;100777.22;5012659;28;20658;-87
2021/06/02 08:44:46;;;;;;;4.55;1.90;;;;;;;16.76;57.89;100757.38;4995387;28;20049;-84
2021/06/02 08:47:12;;;;;;;2.03;1.70;;;;;;;16.88;60.81;100790.59;5020814;28;20092;-80
2021/06/02 08:49:37;;;;;;;3.13;1.88;;;;;;;16.42;59.81;100785.47;5019898;28;20551;-80
2021/06/02 08:52:08;;;;;;;2.85;1.70;;;;;;;16.37;58.23;100792.31;4995526;28;20038;-80
2021/06/02 08:54:34;;;;;;;4.25;1.63;;;;;;;16.32;58.86;100768.81;4999955;28;20037;-81
2021/06/02 08:57:06;;;;;;;3.42;1.92;;;;;;;16.52;60.77;100783.03;5034186;28;20052;-80
2021/06/02 08:59:32;;;;;;;2.58;1.75;;;;;;;16.80;57.70;100795.69;4992783;28;20579;-87
2021/06/02 09:01:58;;;;;;;3.78;1.90;;;;;;;17.02;57.86;100795.19;4991801;28;20038;-79
2021/06/02 09:04:25;;;;;;;3.45;1.63;;;;;;;17.34;54.44;100794.81;4992050;28;20042;-81
2021/06/02 10:18:47;;;;;;;1.85;1.45;;;;;;;19.18;48.25;100786.34;5041771;28;20187;-79
2021/06/02 10:21:13;;;;;;;4.38;1.60;;;;;;;19.18;52.06;100778.47;5035186;28;20128;-80
2021/06/02 10:23:44;;;;;;;2.78;1.42;;;;;;;19.35;50.14;100789.03;5034941;28;20029;-85
2021/06/02 10:26:12;;;;;;;1.75;1.50;;;;;;;18.52;53.57;100774.44;5052617;28;20036;-87
2021/06/02 10:28:38;;;;;;;1.90;1.40;;;;;;;19.16;48.59;100769.72;5034505;28;20072;-79
2021/06/02 10:31:06;;;;;;;1.67;1.33;;;;;;;19.69;46.80;100781.38;5052635;28;20052;-88
2021/06/02 10:33:32;;;;;;;2.45;1.73;;;;;;;19.87;48.86;100762.25;5034597;28;20032;-81
2021/06/02 10:36:00;;;;;;;3.58;1.70;;;;;;;20.29;48.75;100717.78;5034506;28;20748;-81
2021/06/02 10:38:30;;;;;;;2.05;1.60;;;;;;;20.36;45.74;100762.38;5052636;28;20025;-81
2021/06/02 10:40:57;;;;;;;2.67;1.70;;;;;;;20.17;47.95;100771.91;5034798;28;20025;-79
2021/06/02 10:43:29;;;;;;;3.50;2.03;;;;;;;19.68;47.05;100777.84;5034774;28;20029;-81
2021/06/02 10:46:01;;;;;;;3.92;2.22;;;;;;;20.32;55.59;100770.22;5052393;28;20025;-85
2021/06/02 10:48:54;;;;;;;1.55;1.45;;;;;;;20.53;47.39;100770.22;5034435;28;20090;-82
2021/06/02 10:51:39;;;;;;;2.65;1.40;;;;;;;20.01;45.76;100765.78;5052452;28;20048;-80
2021/06/02 10:54:04;;;;;;;2.22;1.50;;;;;;;20.25;48.52;100769.34;5052077;28;20029;-80
2021/06/02 10:56:30;;;;;;;3.10;1.60;;;;;;;20.29;50.59;100747.50;5034297;28;20447;-81
2021/06/02 10:58:56;;;;;;;3.80;1.42;;;;;;;20.64;45.64;100766.75;5034635;28;20032;-84
2021/06/02 11:01:22;;;;;;;1.95;1.45;;;;;;;20.77;45.93;100763.28;5051918;28;20101;-79
2021/06/02 11:04:10;;;;;;;2.28;1.40;;;;;;;20.81;46.16;100780.78;5033255;28;20111;-80
2021/06/02 11:06:41;;;;;;;3.10;1.67;;;;;;;20.25;45.17;100729.13;5051970;28;20035;-85
2021/06/02 11:09:09;;;;;;;3.17;1.40;;;;;;;20.92;44.75;100769.38;5034427;28;20029;-82
2021/06/02 11:11:42;;;;;;;2.00;1.30;;;;;;;20.83;45.71;100755.38;5034009;28;20036;-80
2021/06/02 11:14:16;;;;;;;3.22;1.50;;;;;;;21.31;44.55;100768.44;5051501;28;20052;-80
2021/06/02 11:16:49;;;;;;;1.83;1.58;;;;;;;21.30;44.64;100765.84;5034112;28;20036;-79
2021/06/02 11:19:22;;;;;;;3.20;1.70;;;;;;;21.09;45.82;100767.63;5051476;28;20068;-85
2021/06/02 11:21:54;;;;;;;7.10;3.85;;;;;;;20.12;46.05;100767.56;5033760;28;20055;-82
2021/06/02 11:24:36;;;;;;;1.40;1.30;;;;;;;20.40;47.44;100765.88;5033538;28;20033;-80
2021/06/02 11:27:11;;;;;;;2.75;1.60;;;;;;;20.98;49.91;100748.38;5051544;28;20021;-81
2021/06/02 11:29:56;;;;;;;3.55;1.73;;;;;;;21.19;48.69;100752.72;5033865;28;20032;-82
2021/06/02 11:32:32;;;;;;;2.90;1.67;;;;;;;21.48;46.30;100734.25;4973461;28;20036;-81
2021/06/02 11:35:06;;;;;;;5.30;2.30;;;;;;;21.63;44.48;100690.41;4989673;28;20421;-81
2021/06/02 11:37:35;;;;;;;7.07;2.03;;;;;;;21.92;44.27;100697.25;4989713;28;20496;-82
2021/06/02 11:40:03;;;;;;;;;;;;;;;22.18;43.19;100747.06;4990850;28;20030;-79
2021/06/02 11:42:28;;;;;;;3.80;1.80;;;;;;;21.74;45.38;100754.31;4989796;28;20007;-85
2021/06/02 11:45:14;;;;;;;3.95;1.60;;;;;;;21.79;47.08;100743.78;4990062;28;20074;-78
2021/06/02 11:47:48;;;;;;;2.60;1.60;;;;;;;21.52;47.22;100736.84;4989706;28;20026;-78
2021/06/02 11:50:14;;;;;;;2.33;1.40;;;;;;;21.34;45.40;100742.16;4973469;28;20460;-82
2021/06/02 11:52:41;;;;;;;5.03;1.92;;;;;;;20.77;45.29;100737.06;4973250;28;20038;-79
2021/06/02 11:55:10;;;;;;;3.08;1.40;;;;;;;20.33;46.07;100751.00;4989640;28;20033;-78
2021/06/02 11:57:43;;;;;;;3.55;1.50;;;;;;;19.79;46.50;100683.59;4973260;28;20487;-81
2021/06/02 12:00:15;;;;;;;2.25;1.52;;;;;;;19.58;47.04;100720.19;4989699;28;20034;-78
2021/06/02 12:02:42;;;;;;;4.18;1.60;;;;;;;19.78;47.81;100739.47;4989529;28;20035;-79
2021/06/02 12:05:18;;;;;;;2.05;1.50;;;;;;;20.17;46.42;100745.72;4989634;28;20099;-82
2021/06/02 12:07:52;;;;;;;2.17;1.40;;;;;;;20.15;45.77;100731.75;4989754;28;20667;-80
2021/06/02 12:10:18;;;;;;;2.80;1.45;;;;;;;20.25;47.63;100721.25;5040898;28;20071;-78
2021/06/02 12:12:45;;;;;;;2.53;1.48;;;;;;;20.35;45.91;100731.75;5033302;28;20072;-81
2021/06/02 12:15:13;;;;;;;3.22;1.58;;;;;;;20.94;46.19;100737.00;5034033;28;20032;-79
2021/06/02 12:17:40;;;;;;;2.45;1.60;;;;;;;21.01;43.87;100724.78;5055555;28;20033;-79
2021/06/02 12:20:08;;;;;;;2.95;1.75;;;;;;;21.23;45.59;100722.09;5037208;28;20119;-79
2021/06/02 12:22:34;;;;;;;3.20;1.60;;;;;;;21.23;42.62;100720.31;5055094;28;20044;-80
2021/06/02 12:25:09;;;;;;;2.25;1.58;;;;;;;21.41;43.71;100726.38;5036873;28;20052;-78
2021/06/02 12:27:40;;;;;;;3.25;1.50;;;;;;;21.56;43.41;100725.47;5055266;28;20092;-80
2021/06/02 12:30:06;;;;;;;2.38;1.30;;;;;;;21.67;44.45;100725.44;5054894;28;20040;-81
2021/06/02 12:32:58;;;;;;;2.63;1.40;;;;;;;21.80;43.58;100712.22;5037195;28;20025;-83
2021/06/02 12:35:42;;;;;;;3.03;1.33;;;;;;;21.54;43.79;100716.72;5036308;28;20452;-81
2021/06/02 12:38:15;;;;;;;2.20;1.40;;;;;;;21.56;44.36;100729.00;5037013;28;20117;-81
2021/06/02 12:40:51;;;;;;;4.40;1.50;;;;;;;21.86;42.04;100727.09;5036926;28;20025;-82
2021/06/02 12:43:18;;;;;;;2.88;1.40;;;;;;;22.11;41.57;100683.13;5054975;28;20032;-78
2021/06/02 12:45:45;;;;;;;1.70;1.20;;;;;;;22.07;40.69;100728.72;5054343;28;20025;-84
2021/06/02 12:48:13;;;;;;;1.95;1.27;;;;;;;21.62;43.21;100728.06;5033729;28;20121;-78
2021/06/02 12:50:49;;;;;;;4.55;1.20;;;;;;;22.07;40.79;100726.09;5054779;28;20033;-80
2021/06/02 12:53:18;;;;;;;2.25;1.17;;;;;;;21.52;41.33;100681.69;5036905;28;20025;-78
2021/06/02 12:55:49;;;;;;;2.33;1.20;;;;;;;21.64;44.45;100718.44;5036467;28;20033;-78
2021/06/02 12:58:19;;;;;;;1.40;1.10;;;;;;;21.25;43.99;100722.97;5036577;28;20638;-79
2021/06/02 13:00:47;;;;;;;3.40;1.30;;;;;;;21.24;43.14;100714.19;5054371;28;20052;-80
2021/06/02 13:03:20;;;;;;;1.95;1.30;;;;;;;21.54;42.08;100727.22;5054125;28;20052;-79
2021/06/02 13:05:47;;;;;;;3.47;1.50;;;;;;;21.64;41.47;100723.69;5036657;28;20025;-76
2021/06/02 13:08:13;;;;;;;5.25;2.75;;;;;;;21.43;43.16;100674.72;5036377;28;20119;-77
2021/06/02 13:10:42;;;;;;;3.40;2.40;;;;;;;21.89;41.12;100734.09;5054193;28;20036;-83
2021/06/02 13:13:09;;;;;;;3.85;1.60;;;;;;;21.41;41.40;100676.47;5054401;28;20482;-81
2021/06/02 13:15:38;;;;;;;1.65;1.30;;;;;;;21.60;41.51;100740.38;5036420;28;20079;-79